Time;durP1;ratioP1;P1;durP2;ratioP2;P2;SDS_P1;SDS_P2;PMS_P1;PMS_P2;Temp;Humidity;BMP_temperature;BMP_pressure;BME280_temperature;BME280_humidity;BME280_pressure;Samples;Min_cycle;Max_cycle;Signal;HPM_P1;HPM_P2
2021/12/06 00:04:33;;;;;;;14.15;6.30;;;;;;;3.25;67.27;96968.63;9787484;30;20049;-77
2021/12/06 00:09:54;;;;;;;14.40;6.20;;;;;;;3.23;67.87;96965.72;9774715;30;20056;-77
2021/12/06 00:15:26;;;;;;;11.32;6.05;;;;;;;3.24;67.49;96978.94;9775131;30;20056;-77
2021/12/06 00:21:22;;;;;;;15.13;6.45;;;;;;;3.28;67.54;96975.75;9787354;30;20056;-77
2021/12/06 00:27:47;;;;;;;13.60;6.85;;;;;;;3.28;67.32;96973.75;9786140;30;20424;-77
2021/12/06 00:33:09;;;;;;;17.50;7.72;;;;;;;3.23;67.59;96965.72;9798925;30;20052;-78
2021/12/06 00:38:31;;;;;;;17.27;8.02;;;;;;;3.17;67.20;96972.16;9761997;30;20048;-77
2021/12/06 00:43:53;;;;;;;17.40;8.70;;;;;;;3.15;68.03;96960.97;9748367;30;20153;-77
2021/12/06 00:49:14;;;;;;;16.65;8.35;;;;;;;3.11;67.25;96965.44;9761416;30;20064;-78
2021/12/06 00:54:36;;;;;;;15.63;8.23;;;;;;;3.10;67.41;96969.50;9773511;30;20140;-78
2021/12/06 00:59:57;;;;;;;22.25;8.38;;;;;;;3.03;67.46;96973.75;9773870;30;20506;-78
2021/12/06 01:05:22;;;;;;;20.02;7.60;;;;;;;2.88;67.25;96976.63;9761257;30;20057;-77
2021/12/06 01:10:44;;;;;;;14.57;7.55;;;;;;;2.86;68.26;96984.72;9762073;30;20087;-77
2021/12/06 01:16:12;;;;;;;14.38;7.55;;;;;;;2.94;67.65;96990.19;9761292;30;20459;-77
2021/12/06 01:21:54;;;;;;;15.13;7.57;;;;;;;2.99;67.81;96987.22;9748809;30;20065;-77
2021/12/06 01:34:04;;;;;;;13.50;6.90;;;;;;;2.88;67.85;97007.66;9719692;30;20060;-77
2021/12/06 01:39:25;;;;;;;17.60;6.90;;;;;;;2.88;68.26;97009.69;9783544;30;20049;-77
2021/12/06 01:44:51;;;;;;;16.30;8.10;;;;;;;2.81;67.75;97019.50;9791456;30;20044;-77
2021/12/06 01:50:21;;;;;;;15.20;6.80;;;;;;;2.72;67.65;97030.38;9781127;30;20123;-77
2021/12/06 01:55:48;;;;;;;13.73;6.70;;;;;;;2.72;67.82;97024.88;9769289;30;20049;-77
2021/12/06 02:10:08;;;;;;;15.48;6.45;;;;;;;2.81;68.06;97029.78;9804047;30;20480;-78
2021/12/06 02:21:32;;;;;;;13.48;6.70;;;;;;;2.80;67.68;97042.09;9783851;30;20065;-77
2021/12/06 02:27:05;;;;;;;19.13;9.60;;;;;;;2.75;67.83;97037.53;9756273;30;20523;-77
2021/12/06 02:32:58;;;;;;;22.10;9.60;;;;;;;2.62;67.85;97035.75;9777394;30;20477;-77
2021/12/06 02:38:20;;;;;;;14.73;7.90;;;;;;;2.51;68.22;97036.91;9753767;30;20500;-77
2021/12/06 02:44:19;;;;;;;14.10;7.05;;;;;;;2.37;68.45;97038.41;9768551;30;20400;-77
2021/12/06 02:50:10;;;;;;;13.57;6.15;;;;;;;2.19;67.99;97026.53;9785627;30;20064;-77
2021/12/06 02:56:06;;;;;;;14.82;6.63;;;;;;;2.06;68.52;97048.78;9775595;30;20427;-77
2021/12/06 03:01:39;;;;;;;15.60;7.03;;;;;;;1.92;68.93;97040.00;9754366;30;20053;-77
2021/12/06 03:07:31;;;;;;;13.60;6.18;;;;;;;1.81;68.56;97037.63;9775840;30;20061;-77
2021/12/06 03:12:56;;;;;;;14.98;6.75;;;;;;;1.77;68.97;97036.56;9777632;30;20480;-77
2021/12/06 03:18:25;;;;;;;13.07;6.35;;;;;;;1.80;69.28;97033.41;9752689;30;20575;-77
2021/12/06 03:24:15;;;;;;;17.20;7.05;;;;;;;1.80;69.11;97035.44;9780713;30;20060;-77
2021/12/06 03:29:39;;;;;;;13.15;6.45;;;;;;;1.83;69.26;97040.56;9776628;30;20488;-77
2021/12/06 03:35:29;;;;;;;15.93;6.35;;;;;;;1.89;69.36;97049.38;9766568;30;20064;-77
2021/12/06 03:40:54;;;;;;;11.70;6.28;;;;;;;1.96;69.47;97050.66;9776644;30;20044;-77
2021/12/06 03:47:28;;;;;;;14.35;6.65;;;;;;;2.04;69.11;97053.41;9765483;30;20060;-77
2021/12/06 03:52:50;;;;;;;13.73;6.45;;;;;;;2.12;69.44;97051.34;9775516;30;20102;-77
2021/12/06 03:58:40;;;;;;;14.85;6.32;;;;;;;2.17;69.63;97061.44;9781381;30;20057;-77
2021/12/06 04:04:12;;;;;;;14.20;5.88;;;;;;;2.23;68.97;97064.72;9753552;30;20437;-77
2021/12/06 04:09:35;;;;;;;11.43;5.53;;;;;;;2.33;69.57;97075.91;9786846;30;20066;-78
2021/12/06 04:15:57;;;;;;;13.93;5.93;;;;;;;2.42;69.52;97073.31;9790486;30;20519;-77
2021/12/06 04:21:58;;;;;;;14.55;6.22;;;;;;;2.47;69.37;97083.38;9787712;30;20388;-77
2021/12/06 04:27:21;;;;;;;13.93;5.60;;;;;;;2.50;69.51;97085.00;9774295;30;20087;-78
2021/12/06 04:32:44;;;;;;;12.98;5.60;;;;;;;2.48;68.88;97084.84;9774393;30;20065;-77
2021/12/06 04:38:13;;;;;;;10.52;5.20;;;;;;;2.49;69.18;97097.31;9774948;30;20048;-77
2021/12/06 04:44:05;;;;;;;8.40;4.57;;;;;;;2.47;69.36;97105.41;9781537;30;20052;-78
2021/12/06 04:49:29;;;;;;;9.63;5.03;;;;;;;2.44;69.03;97097.53;9775284;30;20045;-77
2021/12/06 04:55:29;;;;;;;11.80;5.15;;;;;;;2.47;68.99;97099.91;9775660;30;20044;-77
2021/12/06 05:08:42;;;;;;;10.73;5.13;;;;;;;2.46;68.79;97095.69;9798795;30;20048;-78
2021/12/06 05:14:04;;;;;;;11.48;5.38;;;;;;;2.44;69.25;97092.75;9757707;30;20056;-78
2021/12/06 05:19:25;;;;;;;8.13;4.00;;;;;;;2.47;68.93;97091.63;9768321;30;20052;-78
2021/12/06 05:33:36;;;;;;;10.25;4.95;;;;;;;2.51;68.70;97105.78;9806834;30;20136;-77
2021/12/06 05:39:59;;;;;;;13.55;5.15;;;;;;;2.55;68.71;97119.16;9777927;30;20060;-77
2021/12/06 05:45:49;;;;;;;10.90;4.68;;;;;;;2.60;68.47;97132.00;9796639;30;20135;-77
2021/12/06 05:51:10;;;;;;;10.40;5.30;;;;;;;2.68;69.15;97140.97;9780624;30;20052;-78
2021/12/06 05:57:32;;;;;;;16.60;6.55;;;;;;;2.76;68.93;97146.47;9778816;30;20049;-79
2021/12/06 06:11:26;;;;;;;10.02;5.20;;;;;;;2.81;68.61;97165.56;9804102;30;20084;-78
2021/12/06 06:17:48;;;;;;;13.35;5.40;;;;;;;2.80;69.04;97177.16;9786032;30;20451;-78
2021/12/06 06:24:09;;;;;;;11.80;5.25;;;;;;;2.81;68.67;97181.38;9781087;30;20061;-79
2021/12/06 06:30:31;;;;;;;10.55;5.63;;;;;;;2.80;69.40;97199.22;9795098;30;20476;-79
2021/12/06 06:36:27;;;;;;;;;;;;;;;2.87;69.61;97218.47;9786843;30;20056;-78
2021/12/06 06:42:23;;;;;;;11.80;5.40;;;;;;;2.88;68.34;97222.69;9793565;30;20362;-77
2021/12/06 06:48:15;;;;;;;11.65;5.13;;;;;;;2.87;68.97;97226.00;9777901;30;20052;-77
2021/12/06 06:53:37;;;;;;;10.68;5.63;;;;;;;2.82;69.23;97237.97;9790163;30;20076;-77
2021/12/06 06:59:08;;;;;;;15.60;7.07;;;;;;;2.86;69.05;97258.34;9777682;30;20052;-78
2021/12/06 07:05:01;;;;;;;14.05;6.35;;;;;;;2.89;69.05;97262.03;9801554;30;20508;-77
2021/12/06 07:11:58;;;;;;;9.05;6.20;;;;;;;2.79;68.89;97277.66;9794289;30;20053;-79
2021/12/06 07:17:20;;;;;;;13.38;6.50;;;;;;;2.88;69.04;97269.56;9802453;30;20127;-78
2021/12/06 07:23:13;;;;;;;12.20;6.47;;;;;;;2.79;69.11;97278.38;9775537;30;20049;-77
2021/12/06 07:29:03;;;;;;;12.15;6.57;;;;;;;2.73;69.17;97283.38;9770183;30;20057;-77
2021/12/06 07:34:56;;;;;;;9.80;5.78;;;;;;;2.77;68.63;97303.03;9774489;30;20053;-77
2021/12/06 07:40:57;;;;;;;11.83;6.93;;;;;;;2.84;69.08;97298.78;9766767;30;20064;-77
2021/12/06 07:46:52;;;;;;;9.15;6.50;;;;;;;2.86;68.79;97305.22;9775901;30;20105;-78
2021/12/06 07:52:52;;;;;;;10.27;5.88;;;;;;;2.88;68.08;97304.66;9783369;30;20056;-78
2021/12/06 07:58:21;;;;;;;10.43;5.93;;;;;;;2.88;68.77;97307.41;9764588;30;20055;-78
2021/12/06 08:03:51;;;;;;;12.75;6.07;;;;;;;2.91;68.47;97322.88;9777980;30;20053;-78
2021/12/06 08:09:49;;;;;;;12.20;5.97;;;;;;;2.95;67.86;97323.22;9790655;30;20127;-78
2021/12/06 08:15:43;;;;;;;12.13;6.90;;;;;;;2.98;68.47;97324.13;9781764;30;20061;-78
2021/12/06 08:22:45;;;;;;;11.30;6.40;;;;;;;3.00;67.96;97319.56;9795187;30;20053;-78
2021/12/06 08:28:40;;;;;;;11.88;6.18;;;;;;;3.06;68.27;97327.63;9773284;30;20064;-78
2021/12/06 08:35:45;;;;;;;11.07;6.30;;;;;;;3.32;67.44;97335.47;9811358;30;20135;-77
2021/12/06 08:41:11;;;;;;;12.18;6.85;;;;;;;3.41;67.41;97347.97;9752256;30;20055;-77
2021/12/06 08:46:36;;;;;;;12.73;6.57;;;;;;;3.47;67.21;97353.28;9775419;30;20118;-78
2021/12/06 08:52:14;;;;;;;11.50;6.70;;;;;;;3.54;67.52;97356.00;9776210;30;20093;-77
2021/12/06 08:57:51;;;;;;;11.35;6.65;;;;;;;3.61;67.17;97369.06;9766819;30;20375;-77
2021/12/06 09:03:22;;;;;;;11.93;6.90;;;;;;;3.53;66.29;97368.34;9751078;30;20056;-77
2021/12/06 09:09:12;;;;;;;13.40;7.72;;;;;;;3.50;66.40;97377.75;9801371;30;20072;-77
2021/12/06 09:14:41;;;;;;;13.88;7.75;;;;;;;3.65;66.95;97379.72;9833743;30;20052;-77
2021/12/06 09:20:13;;;;;;;11.02;7.45;;;;;;;3.78;66.73;97387.06;9809784;30;20055;-78
2021/12/06 09:25:39;;;;;;;14.25;7.95;;;;;;;3.84;66.65;97393.09;9833539;30;20063;-78
2021/12/06 09:31:13;;;;;;;13.25;8.15;;;;;;;3.85;66.48;97386.28;9821374;30;20068;-77
2021/12/06 09:36:45;;;;;;;12.38;8.18;;;;;;;3.77;66.01;97388.34;9813183;30;20056;-77
2021/12/06 09:42:09;;;;;;;12.45;8.02;;;;;;;3.85;65.94;97391.78;9772738;30;20051;-77
2021/12/06 09:47:31;;;;;;;13.98;8.23;;;;;;;3.85;65.99;97394.56;9783985;30;20048;-77
2021/12/06 09:53:00;;;;;;;12.45;8.05;;;;;;;4.27;65.69;97389.97;9785014;30;20135;-77
2021/12/06 09:58:46;;;;;;;12.65;7.93;;;;;;;4.57;63.84;97399.38;9802380;30;20048;-80
2021/12/06 10:04:20;;;;;;;14.85;8.27;;;;;;;4.43;63.86;97392.63;9803915;30;20419;-80
2021/12/06 10:09:49;;;;;;;12.40;7.57;;;;;;;4.26;64.46;97396.78;9792247;30;20488;-80
2021/12/06 10:15:26;;;;;;;12.57;8.10;;;;;;;4.15;64.57;97397.22;9792818;30;20048;-79
2021/12/06 10:20:54;;;;;;;12.27;7.90;;;;;;;4.26;64.75;97394.03;9791431;30;20044;-80
2021/12/06 10:26:23;;;;;;;14.95;9.13;;;;;;;4.16;64.17;97398.69;9802374;30;20119;-80
2021/12/06 10:37:52;;;;;;;11.98;8.07;;;;;;;4.29;63.43;97384.59;9693193;30;20066;-78
2021/12/06 10:43:17;;;;;;;11.80;8.73;;;;;;;4.61;62.86;97399.69;9693971;30;20490;-78
2021/12/06 10:48:40;;;;;;;13.60;8.70;;;;;;;5.03;63.53;97402.53;9678380;30;20052;-78
2021/12/06 11:07:22;;;;;;;13.05;8.95;;;;;;;4.80;61.46;97402.69;9835890;30;20105;-79
2021/12/06 11:13:24;;;;;;;13.48;8.18;;;;;;;4.81;61.67;97404.16;10891398;24;20044;-83
2021/12/06 11:19:45;;;;;;;13.65;8.90;;;;;;;4.47;62.47;97398.50;9860941;29;20120;-82
2021/12/06 11:25:16;;;;;;;12.85;8.18;;;;;;;4.28;62.08;97405.25;9817027;30;20064;-81
2021/12/06 11:31:03;;;;;;;12.05;7.97;;;;;;;4.26;62.18;97407.09;9792573;30;20049;-76
2021/12/06 11:36:28;;;;;;;14.15;8.60;;;;;;;4.26;62.35;97401.56;9776869;30;20546;-80
2021/12/06 11:42:04;;;;;;;12.57;8.20;;;;;;;4.28;62.30;97401.75;9795248;30;20485;-81
2021/12/06 11:47:37;;;;;;;13.23;7.93;;;;;;;4.13;62.18;97410.09;9781095;30;20045;-80
2021/12/06 11:53:05;;;;;;;13.30;8.60;;;;;;;3.95;61.71;97403.72;9792792;30;20048;-81
2021/12/06 11:58:35;;;;;;;12.25;8.60;;;;;;;3.79;62.48;97407.84;9791210;30;20052;-79
2021/12/06 12:04:04;;;;;;;12.98;8.65;;;;;;;3.65;62.23;97410.06;9799549;30;20074;-79
2021/12/06 12:09:33;;;;;;;12.35;8.40;;;;;;;3.66;62.30;97404.00;9800015;30;20044;-82
2021/12/06 12:14:59;;;;;;;12.05;7.88;;;;;;;3.67;62.25;97411.00;9791429;30;20052;-80
2021/12/06 12:20:24;;;;;;;;;;;;;;;3.70;62.83;97409.16;9800970;30;20068;-79
2021/12/06 12:25:53;;;;;;;;;;;;;;;3.53;62.08;97415.25;9827630;30;19926;-80
2021/12/06 12:31:18;;;;;;;13.13;8.30;;;;;;;3.40;61.70;97409.97;9828141;30;20365;-80
2021/12/06 12:36:42;;;;;;;10.80;8.23;;;;;;;3.42;62.60;97408.09;9813335;30;20044;-80
2021/12/06 12:42:06;;;;;;;11.55;7.80;;;;;;;3.47;62.16;97408.47;9802990;30;20048;-79
2021/12/06 12:54:15;;;;;;;12.63;7.90;;;;;;;3.38;62.18;97415.31;10397555;24;20432;-78
2021/12/06 13:00:01;;;;;;;13.38;9.10;;;;;;;3.25;62.43;97413.47;9871357;30;20055;-78
2021/12/06 13:05:30;;;;;;;11.82;8.35;;;;;;;3.15;62.91;97416.03;9821597;30;20048;-78
2021/12/06 13:11:03;;;;;;;12.43;8.80;;;;;;;3.11;62.98;97428.75;9823268;30;20044;-78
2021/12/06 13:16:56;;;;;;;13.60;8.98;;;;;;;3.05;62.32;97414.41;9811497;30;20412;-78
2021/12/06 13:22:35;;;;;;;14.57;9.30;;;;;;;3.02;62.31;97410.72;9822042;30;20131;-78
2021/12/06 13:28:06;;;;;;;12.25;8.85;;;;;;;3.04;62.57;97418.44;9809116;30;20132;-78
2021/12/06 13:33:38;;;;;;;15.70;10.35;;;;;;;3.12;61.73;97419.91;9839717;30;20105;-78
2021/12/06 13:39:05;;;;;;;15.60;10.30;;;;;;;3.10;62.22;97424.53;9816331;30;20083;-78
2021/12/06 13:44:56;;;;;;;16.40;10.52;;;;;;;2.97;62.15;97419.91;9816914;30;20079;-79
2021/12/06 13:50:37;;;;;;;15.70;10.05;;;;;;;2.99;61.98;97420.09;9828783;30;20052;-79
2021/12/06 13:56:08;;;;;;;14.60;10.20;;;;;;;2.99;61.38;97411.06;9830236;30;20056;-78
2021/12/06 14:01:46;;;;;;;16.20;10.57;;;;;;;2.85;61.76;97416.78;9814913;30;20393;-76
2021/12/06 14:07:28;;;;;;;15.55;10.80;;;;;;;2.75;61.50;97421.38;9814320;30;20056;-77
2021/12/06 14:13:07;;;;;;;19.77;13.60;;;;;;;2.75;61.74;97432.41;9809371;30;20052;-77
2021/12/06 14:18:33;;;;;;;17.65;11.52;;;;;;;2.74;61.79;97436.44;9828349;30;20056;-76
2021/12/06 14:23:58;;;;;;;20.40;12.57;;;;;;;2.67;62.18;97447.44;9829561;30;20420;-78
2021/12/06 14:29:28;;;;;;;17.10;11.57;;;;;;;2.63;62.56;97449.84;9787019;30;20506;-78
2021/12/06 14:34:55;;;;;;;18.60;12.30;;;;;;;2.58;61.90;97462.50;9844663;30;20419;-77
2021/12/06 14:40:23;;;;;;;20.55;13.73;;;;;;;2.56;61.99;97460.28;9791956;30;20048;-77
2021/12/06 14:46:20;;;;;;;17.83;12.18;;;;;;;2.49;62.64;97463.75;9796083;30;20496;-77
2021/12/06 14:51:45;;;;;;;17.08;11.65;;;;;;;2.46;62.95;97473.13;9784771;30;20500;-78
2021/12/06 14:57:12;;;;;;;18.42;12.43;;;;;;;2.43;62.63;97465.22;9789192;30;20485;-78
2021/12/06 15:02:54;;;;;;;16.98;11.65;;;;;;;2.39;62.55;97476.56;9780181;30;20385;-78
2021/12/06 15:08:33;;;;;;;20.02;12.82;;;;;;;2.42;62.72;97475.50;9791042;30;20489;-78
2021/12/06 15:13:57;;;;;;;;;;;;;;;2.42;62.59;97481.00;9801115;30;20053;-78
2021/12/06 15:19:58;;;;;;;19.48;12.25;;;;;;;2.38;63.15;97491.63;9800388;30;19926;-78
2021/12/06 15:25:36;;;;;;;18.48;13.43;;;;;;;2.35;63.17;97489.97;9823267;30;20051;-78
2021/12/06 15:31:03;;;;;;;18.65;12.27;;;;;;;2.35;63.15;97487.22;9852569;30;20048;-77
2021/12/06 15:36:27;;;;;;;20.15;13.77;;;;;;;2.34;63.31;97488.50;9861374;30;20052;-78
2021/12/06 15:41:57;;;;;;;20.30;12.68;;;;;;;2.29;63.60;97489.41;9825750;30;20127;-78
2021/12/06 15:47:37;;;;;;;20.17;13.75;;;;;;;2.22;62.54;97492.84;9862419;30;20484;-77
2021/12/06 15:53:02;;;;;;;21.30;13.95;;;;;;;2.15;63.26;97504.59;9836925;30;20071;-78
2021/12/06 15:58:25;;;;;;;;;;;;;;;2.12;62.88;97500.16;9837013;30;20082;-78
2021/12/06 16:03:59;;;;;;;19.02;13.20;;;;;;;2.12;63.15;97500.16;9861467;30;20335;-77
2021/12/06 16:09:24;;;;;;;18.58;12.27;;;;;;;2.11;63.40;97501.44;9847846;30;20414;-78
2021/12/06 16:14:49;;;;;;;18.70;13.35;;;;;;;2.12;63.33;97508.41;9847845;30;20177;-78
2021/12/06 16:20:12;;;;;;;18.80;13.40;;;;;;;2.15;63.25;97521.09;9837191;30;20070;-82
2021/12/06 16:25:54;;;;;;;20.00;13.00;;;;;;;2.13;63.70;97518.16;9879835;30;20052;-80
2021/12/06 16:31:21;;;;;;;21.80;14.20;;;;;;;2.14;63.88;97525.88;9887614;29;20032;-82
2021/12/06 16:36:47;;;;;;;21.90;13.13;;;;;;;2.08;63.78;97538.31;10159958;24;20108;-83
2021/12/06 16:42:38;;;;;;;22.52;14.45;;;;;;;2.13;63.93;97529.91;9844566;30;20052;-82
2021/12/06 16:48:04;;;;;;;21.42;14.15;;;;;;;2.08;63.30;97528.03;9947675;25;20393;-78
2021/12/06 16:53:30;;;;;;;20.77;13.73;;;;;;;2.10;63.56;97535.75;9789919;30;20044;-77
2021/12/06 16:58:52;;;;;;;20.70;13.95;;;;;;;2.09;63.90;97531.53;9828568;30;20053;-81
2021/12/06 17:04:20;;;;;;;22.80;13.07;;;;;;;2.03;63.92;97533.69;9807684;30;20496;-81
2021/12/06 17:09:50;;;;;;;18.88;13.07;;;;;;;2.04;64.00;97546.19;9783838;30;20060;-81
2021/12/06 17:15:30;;;;;;;19.75;13.38;;;;;;;2.05;64.19;97539.41;9789322;30;20051;-80
2021/12/06 17:21:06;;;;;;;18.75;13.38;;;;;;;2.03;63.90;97541.94;9784417;30;20053;-78
2021/12/06 17:26:30;;;;;;;21.20;14.48;;;;;;;2.03;63.62;97545.47;9785617;30;20564;-78
2021/12/06 17:32:02;;;;;;;23.13;13.98;;;;;;;2.04;63.73;97544.19;9788670;30;20095;-78
2021/12/06 17:37:28;;;;;;;20.23;13.07;;;;;;;2.11;63.67;97546.22;9787236;30;20068;-80
2021/12/06 17:42:52;;;;;;;21.88;13.90;;;;;;;2.05;64.23;97533.91;9802813;30;20503;-80
2021/12/06 17:48:16;;;;;;;20.92;13.98;;;;;;;2.08;64.13;97538.31;9766376;30;20390;-79
2021/12/06 17:53:39;;;;;;;20.13;14.57;;;;;;;1.98;64.22;97541.56;9749182;30;20574;-79
2021/12/06 17:59:09;;;;;;;21.33;14.15;;;;;;;2.04;64.26;97521.44;9765495;30;20064;-80
2021/12/06 18:04:33;;;;;;;20.08;14.15;;;;;;;2.01;64.27;97523.97;9763791;30;20080;-80
2021/12/06 18:10:16;;;;;;;21.70;14.65;;;;;;;1.94;64.17;97518.44;9770953;30;20053;-82
2021/12/06 18:15:54;;;;;;;23.27;14.95;;;;;;;1.89;64.27;97522.06;9789193;30;20080;-82
2021/12/06 18:21:25;;;;;;;23.73;14.68;;;;;;;1.82;64.29;97515.22;9778868;30;20053;-81
2021/12/06 18:26:59;;;;;;;24.00;16.20;;;;;;;1.79;64.07;97512.81;9761644;30;20076;-82
2021/12/06 18:32:29;;;;;;;21.00;14.23;;;;;;;1.80;64.98;97504.03;9765254;30;20053;-81
2021/12/06 18:37:53;;;;;;;24.92;15.57;;;;;;;1.80;64.79;97500.53;9781645;30;20053;-81
2021/12/06 18:49:16;;;;;;;26.50;16.75;;;;;;;1.83;64.95;97507.69;9784435;30;20080;-82
2021/12/06 18:54:50;;;;;;;25.02;16.73;;;;;;;1.83;64.84;97508.44;9768936;30;20148;-79
2021/12/06 19:00:17;;;;;;;25.92;16.42;;;;;;;1.85;64.81;97494.88;9761508;30;20072;-80
2021/12/06 19:05:43;;;;;;;26.38;16.58;;;;;;;1.82;64.37;97495.94;9769122;30;20060;-80
2021/12/06 19:11:14;;;;;;;23.55;15.95;;;;;;;1.71;64.09;97488.75;9756031;30;20060;-84
2021/12/06 19:16:41;;;;;;;28.58;17.83;;;;;;;1.58;64.80;97493.63;9761696;30;20053;-79
2021/12/06 19:22:05;;;;;;;31.85;17.95;;;;;;;1.66;64.64;97488.91;9742656;30;20056;-81
2021/12/06 19:27:28;;;;;;;28.00;16.75;;;;;;;1.75;64.90;97487.69;9764313;30;20053;-82
2021/12/06 19:33:17;;;;;;;30.27;16.52;;;;;;;1.76;64.73;97478.88;9777980;30;20049;-81
2021/12/06 19:38:43;;;;;;;29.15;17.38;;;;;;;1.78;65.00;97484.56;9775095;30;20055;-81
2021/12/06 19:44:19;;;;;;;26.50;16.10;;;;;;;1.80;64.96;97487.50;9759763;30;20057;-81
2021/12/06 19:50:01;;;;;;;27.02;15.77;;;;;;;1.82;64.65;97479.44;9754824;30;20049;-81
2021/12/06 19:55:34;;;;;;;26.95;17.42;;;;;;;1.84;64.25;97470.66;9758884;30;20048;-79
2021/12/06 20:00:55;;;;;;;;;;;;;;;1.84;64.72;97471.41;9795257;30;20052;-82
2021/12/06 20:06:19;;;;;;;25.92;17.23;;;;;;;1.85;64.39;97466.63;9800442;30;19931;-80
2021/12/06 20:11:49;;;;;;;27.48;16.73;;;;;;;1.83;65.09;97461.66;9754652;30;20053;-80
2021/12/06 20:17:24;;;;;;;25.77;15.68;;;;;;;1.80;64.92;97460.00;9771443;30;20483;-81
2021/12/06 20:23:07;;;;;;;27.77;17.27;;;;;;;1.78;64.77;97462.56;9815737;30;20108;-81
2021/12/06 20:28:45;;;;;;;25.63;15.88;;;;;;;1.76;65.01;97464.38;9808193;30;20059;-80
2021/12/06 20:34:10;;;;;;;24.70;16.00;;;;;;;1.75;64.59;97460.88;9817302;30;20056;-80
2021/12/06 20:39:54;;;;;;;26.27;15.48;;;;;;;1.73;64.90;97460.66;9798594;30;20052;-82
2021/12/06 20:45:33;;;;;;;26.60;15.98;;;;;;;1.75;64.49;97454.66;9810197;30;20048;-82
2021/12/06 20:50:57;;;;;;;25.77;15.07;;;;;;;1.73;64.91;97433.88;9760589;30;20045;-78
2021/12/06 20:56:42;;;;;;;24.52;14.65;;;;;;;1.71;64.67;97427.47;9740136;30;20049;-78
2021/12/06 21:02:25;;;;;;;26.02;15.05;;;;;;;1.55;64.71;97429.41;9739620;30;20053;-78
2021/12/06 21:07:54;;;;;;;26.13;15.35;;;;;;;1.56;64.56;97430.16;9756077;30;20048;-78
2021/12/06 21:19:31;;;;;;;24.60;15.02;;;;;;;1.61;64.75;97426.50;9777117;30;20507;-79
2021/12/06 21:25:10;;;;;;;24.67;14.63;;;;;;;1.66;64.78;97439.38;9782395;30;20045;-78
2021/12/06 21:30:48;;;;;;;25.40;15.18;;;;;;;1.58;64.46;97436.56;9796744;30;20500;-78
2021/12/06 21:36:20;;;;;;;24.20;13.93;;;;;;;1.67;64.51;97432.59;9807342;30;20092;-78
2021/12/06 21:41:47;;;;;;;26.67;15.77;;;;;;;1.70;64.30;97448.00;9799013;30;20044;-78
2021/12/06 21:47:15;;;;;;;27.60;18.45;;;;;;;1.69;64.54;97439.03;9807090;30;20459;-78
2021/12/06 21:52:49;;;;;;;26.23;15.60;;;;;;;1.70;64.29;97439.75;9813915;30;20040;-78
2021/12/06 21:58:16;;;;;;;27.52;15.75;;;;;;;1.64;64.18;97441.91;9817537;30;20553;-78
2021/12/06 22:03:53;;;;;;;27.75;15.38;;;;;;;1.57;64.28;97426.13;9804253;30;20052;-78
2021/12/06 22:09:16;;;;;;;28.10;15.68;;;;;;;1.49;64.33;97425.34;9793656;30;20068;-78
2021/12/06 22:14:43;;;;;;;26.15;15.38;;;;;;;1.41;64.67;97430.78;9805064;30;20496;-79
2021/12/06 22:20:07;;;;;;;28.67;16.13;;;;;;;1.39;64.57;97436.09;9814898;30;20044;-78
2021/12/06 22:25:31;;;;;;;25.45;14.30;;;;;;;1.38;64.76;97432.59;9814665;30;20052;-78
2021/12/06 22:30:53;;;;;;;25.33;15.75;;;;;;;1.28;65.33;97434.38;9802928;30;20055;-78
2021/12/06 22:36:20;;;;;;;27.42;15.65;;;;;;;1.10;65.15;97435.34;9814467;30;20056;-78
2021/12/06 22:41:50;;;;;;;26.33;16.08;;;;;;;1.04;65.04;97432.72;9804473;30;20071;-79
2021/12/06 22:47:17;;;;;;;25.05;14.77;;;;;;;0.96;65.16;97417.44;9803867;30;20076;-78
2021/12/06 22:52:39;;;;;;;26.87;15.63;;;;;;;0.94;65.08;97412.47;9801919;30;20054;-79
2021/12/06 22:58:05;;;;;;;26.23;16.33;;;;;;;1.00;65.13;97406.84;9801908;30;20099;-78
2021/12/06 23:03:34;;;;;;;26.90;15.65;;;;;;;1.07;64.79;97404.16;9813449;30;20048;-78
2021/12/06 23:09:02;;;;;;;24.52;14.73;;;;;;;1.11;65.13;97398.31;9803454;30;20072;-78
2021/12/06 23:14:31;;;;;;;25.13;15.35;;;;;;;1.15;65.01;97393.19;9801101;30;20059;-79
2021/12/06 23:19:58;;;;;;;24.55;15.20;;;;;;;1.20;65.56;97406.06;9813662;30;20485;-78
2021/12/06 23:25:21;;;;;;;27.33;15.93;;;;;;;1.16;65.46;97402.94;9812988;30;20056;-78
2021/12/06 23:30:44;;;;;;;25.55;14.85;;;;;;;1.19;65.20;97403.88;9800046;30;20059;-78
2021/12/06 23:36:07;;;;;;;26.08;15.45;;;;;;;1.23;65.08;97399.50;9800630;30;20052;-78
2021/12/06 23:41:39;;;;;;;;;;;;;;;1.28;65.22;97406.88;9801652;30;20064;-79
2021/12/06 23:47:01;;;;;;;24.88;15.43;;;;;;;1.26;65.48;97392.94;9824867;30;19930;-78
2021/12/06 23:52:23;;;;;;;25.85;16.08;;;;;;;1.30;65.51;97381.56;9799694;30;20060;-79
2021/12/06 23:57:45;;;;;;;28.70;17.02;;;;;;;1.30;65.42;97365.81;9799362;30;20052;-78
